STAZIONE METEO DI BARCELLONA P.G. CENTRO
Dati campionati ogni minuto da Consolle Davis Vantage Pro 2
ed inviati alla rete mediante server Anemos WDS5 wview



Barcellona P.G. Centro more information Barcellona P.G. Centro


Golfo di Patti more information Golfo di Patti


Thunder radar more information blitzortung!


avvertimento per Pioggia  rain snow radar


altri nostri siti meteo:

Rete NOAA MADIS

Italia Meteo Network

Pomeziameteo

Varazze Meteo



Pioggia Inizio validità dal: 13-12-2018 01:00 Fino: 12:59 Allerta per: Pioggia Livello: Giallo info button
english:
No Special Awareness Required BE AWARE, keep up to date with the latest weather forecast. Expect some minor disruption to outdoor activities

italiano:
Nessun Avviso STARE (RIMANERE) ATTENTI. Tenersi aggiornati con le previsioni del tempo più recenti. Aspettarsi alcuni disagi minori per le attività all'aria aperta. 

Report METAR

   
LICF - Barcellona Pozzo di Gotto
Dati ricevuti: 13-12-2018 06:55
Molto nuvoloso  
Molto nuvoloso  
   Vento: W 7.4 km/h
Vento: W 7.4 km/h
Temperatura: 13°C
P.to Rugiada: 10°C
Umidità: 82%
Barometro: 1014 hPa
Nuvole: Molto nuvoloso
Visibilità: oltre 10 km
dettagli cloud: Molto nuvoloso 3300 ft
LICF 130555Z 25004KT 9999 BKN033 13/10 Q1014 RMK BKN BKN090 BKN200 QUK 1 QUL 0 VIS MAR 12 KM MON CIME INC VAR RAPID VIS MIN 9999
LICC - Catania
Dati ricevuti: 13-12-2018 07:20
Molto nuvoloso  
Molto nuvoloso  
   Vento: West 13 km/h
Vento: West 13 km/h
Temperatura: 12°C
P.to Rugiada: 10°C
Umidità: 88%
Barometro: 1015 hPa
Nuvole: Molto nuvoloso
Visibilità: oltre 10 km
dettagli cloud: Poche nuvole 2500 ft,
Molto nuvoloso 4500 ft
LICC 130620Z 28007KT 9999 FEW025 BKN045 12/10 Q1015
LICJ - Palermo
Dati ricevuti: 13-12-2018 07:20
Parzialmente nuvoloso  
Parzialmente nuvoloso  
   Vento: S 24.1 km/h
Vento: S 24.1 km/h
Temperatura: 14°C
P.to Rugiada: 11°C
Umidità: 82%
Barometro: 1014 hPa
Nuvole: Parzialmente nuvoloso
Visibilità: oltre 10 km
dettagli cloud: Poche nuvole 3000 ft,
Parzialmente nuvoloso 4000 ft
LICJ 130620Z 21013KT 9999 FEW030 SCT040 14/11 Q1014
LICF - Messina
Dati ricevuti: 13-12-2018 06:55
Molto nuvoloso  
Molto nuvoloso  
   Vento: W 7.4 km/h
Vento: W 7.4 km/h
Temperatura: 13°C
P.to Rugiada: 10°C
Umidità: 82%
Barometro: 1014 hPa
Nuvole: Molto nuvoloso
Visibilità: oltre 10 km
dettagli cloud: Molto nuvoloso 3300 ft
LICF 130555Z 25004KT 9999 BKN033 13/10 Q1014 RMK BKN BKN090 BKN200 QUK 1 QUL 0 VIS MAR 12 KM MON CIME INC VAR RAPID VIS MIN 9999
LICC - Milazzo
Dati ricevuti: 13-12-2018 07:20
Molto nuvoloso  
Molto nuvoloso  
   Vento: West 13 km/h
Vento: West 13 km/h
Temperatura: 12°C
P.to Rugiada: 10°C
Umidità: 88%
Barometro: 1015 hPa
Nuvole: Molto nuvoloso
Visibilità: oltre 10 km
dettagli cloud: Poche nuvole 2500 ft,
Molto nuvoloso 4500 ft
LICC 130620Z 28007KT 9999 FEW025 BKN045 12/10 Q1015
LICC - Terme Vigliatore
Dati ricevuti: 13-12-2018 07:20
Molto nuvoloso  
Molto nuvoloso  
   Vento: West 13 km/h
Vento: West 13 km/h
Temperatura: 12°C
P.to Rugiada: 10°C
Umidità: 88%
Barometro: 1015 hPa
Nuvole: Molto nuvoloso
Visibilità: oltre 10 km
dettagli cloud: Poche nuvole 2500 ft,
Molto nuvoloso 4500 ft
LICC 130620Z 28007KT 9999 FEW025 BKN045 12/10 Q1015
LICT - Trapani
Dati ricevuti: 13-12-2018 06:55
Parzialmente nuvoloso  
Parzialmente nuvoloso  
   Vento: W 16.7 km/h
Vento: W 16.7 km/h
Temperatura: 14°C
P.to Rugiada: 13°C
Umidità: 94%
Barometro: 1014 hPa
Nuvole: Parzialmente nuvoloso
Visibilità: oltre 10 km
dettagli cloud: Parzialmente nuvoloso 1600 ft
LICT 130555Z 24009KT 9999 SCT016 14/13 Q1014
  

Script sviluppato da  Saratoga-weather.org Adattato per il modello da  Weerstation Leuven

Potete trovare le nostre info meteo anche a:

European Weather Network

Weather Underground

AWEKAS

Citizen Weather Observer Program (CWOP)

HAMweather, WeatherForYou, PWS Weather

Strumentazione usata:

Stazione meteo
Davis VP2

Programma gestore dati meteo
WVIEW

Server per i dati meteo
WDS5 Ecoblack

Davis VP2

WVIEW

WDS5 Ecoblack